Time;durP1;ratioP1;P1;durP2;ratioP2;P2;SDS_P1;SDS_P2;PMS_P1;PMS_P2;Temp;Humidity;BMP_temperature;BMP_pressure;BME280_temperature;BME280_humidity;BME280_pressure;Samples;Min_cycle;Max_cycle;Signal;HPM_P1;HPM_P2
2023/12/14 00:02:55;;;;;;;138.60;57.40;;;;;;;4.79;90.75;97477.29;226417;1269;22591;-74
2023/12/14 00:08:00;;;;;;;126.50;56.30;;;;;;;4.77;90.33;97477.58;226543;1251;24704;-74
2023/12/14 00:13:04;;;;;;;137.90;59.30;;;;;;;4.71;90.28;97481.14;226589;1272;22537;-74
2023/12/14 00:18:06;;;;;;;125.00;55.40;;;;;;;4.68;90.50;97489.60;226569;1272;23162;-75
2023/12/14 00:23:08;;;;;;;128.20;53.70;;;;;;;4.64;90.45;97503.42;226520;1272;25371;-74
2023/12/14 00:28:10;;;;;;;136.60;56.50;;;;;;;4.62;90.33;97510.59;226422;1273;22537;-72
2023/12/14 00:33:13;;;;;;;131.70;53.10;;;;;;;4.53;90.17;97523.26;226394;1267;22550;-74
2023/12/14 00:38:15;;;;;;;135.60;53.90;;;;;;;4.52;90.70;97533.25;226629;1272;22769;-75
2023/12/14 00:43:17;;;;;;;129.40;51.60;;;;;;;4.53;90.89;97537.05;226488;1275;22565;-73
2023/12/14 00:48:19;;;;;;;135.90;54.60;;;;;;;4.53;90.60;97537.55;226447;1273;22541;-73
2023/12/14 00:53:21;;;;;;;126.80;52.10;;;;;;;4.56;90.68;97539.59;226507;1272;23522;-73
2023/12/14 00:58:23;;;;;;;118.60;49.70;;;;;;;4.54;90.43;97540.85;226575;1269;22543;-73
2023/12/14 01:03:25;;;;;;;114.90;47.20;;;;;;;4.50;90.49;97545.52;226432;1274;22597;-73
2023/12/14 01:08:27;;;;;;;101.00;44.40;;;;;;;4.48;90.57;97557.50;226609;1253;22576;-73
2023/12/14 01:13:29;;;;;;;123.60;51.20;;;;;;;4.45;90.31;97562.09;226443;1273;25227;-72
2023/12/14 01:18:31;;;;;;;107.50;46.40;;;;;;;4.45;90.62;97562.64;226536;1274;22556;-73
2023/12/14 01:23:33;;;;;;;101.00;44.60;;;;;;;4.47;91.05;97567.26;226570;1272;22523;-73
2023/12/14 01:28:35;;;;;;;107.70;46.90;;;;;;;4.48;90.96;97566.27;226500;1275;22554;-73
2023/12/14 01:33:37;;;;;;;105.90;45.60;;;;;;;4.48;90.85;97561.23;226567;1251;22543;-73
2023/12/14 01:38:40;;;;;;;110.10;46.40;;;;;;;4.49;90.67;97563.38;226439;1273;22626;-73
2023/12/14 01:43:42;;;;;;;105.30;44.50;;;;;;;4.50;90.59;97564.98;226488;1275;22966;-73
2023/12/14 01:48:44;;;;;;;89.00;39.00;;;;;;;4.48;90.38;97563.61;226465;1254;22568;-73
2023/12/14 01:53:46;;;;;;;79.30;36.50;;;;;;;4.44;90.56;97558.61;226551;1272;22557;-73
2023/12/14 01:58:48;;;;;;;82.60;38.10;;;;;;;4.38;90.59;97559.25;226507;1270;22626;-74
2023/12/14 02:03:52;;;;;;;94.20;41.30;;;;;;;4.35;90.33;97555.59;226561;1272;22533;-73
2023/12/14 02:08:54;;;;;;;98.10;43.50;;;;;;;4.36;90.67;97557.77;226484;1273;22556;-74
2023/12/14 02:13:57;;;;;;;109.00;44.60;;;;;;;4.38;90.57;97559.27;226457;1273;22541;-73
2023/12/14 02:18:59;;;;;;;94.40;39.80;;;;;;;4.40;90.54;97564.43;226515;1273;25265;-74
2023/12/14 02:24:01;;;;;;;88.40;38.50;;;;;;;4.41;90.72;97562.92;226604;1272;24431;-74
2023/12/14 02:29:03;;;;;;;78.30;35.80;;;;;;;4.42;90.58;97567.76;226638;1272;22543;-73
2023/12/14 02:34:05;;;;;;;85.20;36.70;;;;;;;4.40;90.47;97569.46;226524;1272;22532;-73
2023/12/14 02:39:07;;;;;;;77.60;36.10;;;;;;;4.41;90.80;97578.09;226564;1272;22541;-73
2023/12/14 02:44:09;;;;;;;70.00;36.00;;;;;;;4.41;90.67;97587.56;226594;1272;25509;-73
2023/12/14 02:49:11;;;;;;;76.40;36.10;;;;;;;4.39;90.63;97596.87;226595;1272;22533;-73
2023/12/14 02:54:13;;;;;;;60.10;34.10;;;;;;;4.37;90.76;97604.40;226623;1272;23890;-72
2023/12/14 02:59:15;;;;;;;49.00;28.60;;;;;;;4.33;90.33;97609.23;226590;1272;24291;-72
2023/12/14 03:04:17;;;;;;;52.00;29.70;;;;;;;4.26;90.27;97612.48;226756;1275;22555;-73
2023/12/14 03:09:19;;;;;;;51.10;29.30;;;;;;;4.20;90.19;97618.89;226460;1273;22528;-74
2023/12/14 03:14:22;;;;;;;46.10;27.80;;;;;;;4.16;90.23;97624.02;226534;1267;22539;-72
2023/12/14 03:19:24;;;;;;;45.80;27.80;;;;;;;4.14;90.39;97629.19;226593;1272;22537;-73
2023/12/14 03:24:26;;;;;;;49.50;29.40;;;;;;;4.14;90.42;97635.82;226533;1272;22737;-73
2023/12/14 03:29:29;;;;;;;51.60;29.60;;;;;;;4.13;90.51;97640.23;226470;1263;24284;-72
2023/12/14 03:34:31;;;;;;;50.20;29.80;;;;;;;4.14;90.47;97647.18;226462;1269;22579;-73
2023/12/14 03:39:33;;;;;;;49.50;29.10;;;;;;;4.13;90.38;97656.63;226504;1272;24244;-73
2023/12/14 03:44:35;;;;;;;48.60;28.20;;;;;;;4.12;90.46;97665.83;226633;1272;22547;-73
2023/12/14 03:49:40;;;;;;;51.50;28.70;;;;;;;4.10;90.09;97674.29;226577;1272;25293;-72
2023/12/14 03:54:42;;;;;;;44.90;27.50;;;;;;;4.07;90.36;97680.31;226602;1270;22548;-74
2023/12/14 03:59:44;;;;;;;51.00;28.00;;;;;;;4.05;90.25;97686.83;226473;1273;22533;-73
2023/12/14 04:04:47;;;;;;;46.50;26.60;;;;;;;4.01;90.07;97693.19;226529;1272;25249;-72
2023/12/14 04:09:49;;;;;;;46.10;26.20;;;;;;;3.98;90.24;97698.48;226470;1272;22581;-73
2023/12/14 04:14:51;;;;;;;47.60;26.80;;;;;;;3.95;90.38;97703.30;226465;1274;25369;-73
2023/12/14 04:19:53;;;;;;;47.70;26.00;;;;;;;3.94;90.21;97707.98;226582;1272;22569;-73
2023/12/14 04:24:55;;;;;;;49.50;28.40;;;;;;;3.93;90.25;97713.14;226530;1269;22553;-72
2023/12/14 04:29:57;;;;;;;52.70;30.60;;;;;;;3.92;90.44;97720.42;226610;1272;22606;-72
2023/12/14 04:34:59;;;;;;;53.90;30.80;;;;;;;3.89;90.15;97729.86;226607;1272;22534;-72
2023/12/14 04:40:01;;;;;;;57.30;30.30;;;;;;;3.88;90.33;97735.95;226539;1272;24298;-72
2023/12/14 04:45:04;;;;;;;57.10;30.40;;;;;;;3.86;90.20;97740.36;226534;1275;22548;-73
2023/12/14 04:50:06;;;;;;;59.40;33.00;;;;;;;3.84;90.29;97747.88;226560;1274;22535;-73
2023/12/14 04:55:09;;;;;;;52.70;27.70;;;;;;;3.85;90.35;97756.20;226485;1275;25400;-73
2023/12/14 05:00:12;;;;;;;54.30;28.30;;;;;;;3.82;90.25;97759.96;226580;1275;22552;-73
2023/12/14 05:05:14;;;;;;;55.60;27.30;;;;;;;3.81;90.23;97765.67;226528;1275;22655;-73
2023/12/14 05:10:16;;;;;;;52.30;27.40;;;;;;;3.80;90.46;97780.02;226519;1274;26332;-73
2023/12/14 05:15:18;;;;;;;58.00;27.00;;;;;;;3.80;90.42;97785.47;226587;1272;22549;-73
2023/12/14 05:20:20;;;;;;;56.20;27.60;;;;;;;3.81;90.23;97790.23;226589;1275;22556;-73
2023/12/14 05:25:23;;;;;;;58.80;29.20;;;;;;;3.82;90.45;97790.08;226491;1275;22543;-72
2023/12/14 05:30:25;;;;;;;65.40;29.30;;;;;;;3.82;90.44;97798.44;226630;1272;22567;-73
2023/12/14 05:35:27;;;;;;;65.90;30.90;;;;;;;3.82;90.57;97802.61;226557;1275;22551;-73
2023/12/14 05:40:29;;;;;;;63.30;31.10;;;;;;;3.82;90.51;97808.36;226600;1272;22579;-73
2023/12/14 05:45:31;;;;;;;68.20;33.10;;;;;;;3.83;90.61;97811.75;226479;1270;25179;-73
2023/12/14 05:50:33;;;;;;;66.10;31.70;;;;;;;3.85;90.70;97818.19;226527;1275;22544;-73
2023/12/14 05:55:35;;;;;;;66.60;29.50;;;;;;;3.86;91.10;97828.60;226533;1272;22545;-73
2023/12/14 06:00:37;;;;;;;56.80;28.50;;;;;;;3.88;90.61;97838.69;226531;1275;22552;-75
2023/12/14 06:05:39;;;;;;;65.60;31.00;;;;;;;3.88;90.52;97850.48;226490;1275;22533;-73
2023/12/14 06:10:41;;;;;;;65.20;28.90;;;;;;;3.90;90.70;97858.84;226458;1274;23077;-73
2023/12/14 06:15:43;;;;;;;55.50;28.20;;;;;;;3.93;90.63;97864.55;226448;1271;22525;-73
2023/12/14 06:20:46;;;;;;;60.80;28.50;;;;;;;3.94;90.71;97872.23;226310;1275;22554;-73
2023/12/14 06:25:47;;;;;;;60.40;29.50;;;;;;;3.94;90.72;97874.13;226387;1275;22566;-73
2023/12/14 06:30:50;;;;;;;56.70;28.80;;;;;;;3.96;90.93;97879.19;226486;1275;22544;-72
2023/12/14 06:35:52;;;;;;;56.70;25.70;;;;;;;3.98;90.97;97886.99;226625;1275;22540;-73
2023/12/14 06:40:54;;;;;;;59.80;27.50;;;;;;;3.99;90.93;97887.58;226364;1272;22523;-71
2023/12/14 06:45:56;;;;;;;58.50;25.30;;;;;;;3.98;90.82;97893.16;226299;1250;22522;-74
2023/12/14 06:50:58;;;;;;;59.30;26.70;;;;;;;3.99;90.69;97906.36;226088;1257;22554;-74
2023/12/14 06:56:00;;;;;;;56.50;25.80;;;;;;;4.02;90.79;97915.80;226243;1270;22546;-74
2023/12/14 07:01:03;;;;;;;59.20;27.60;;;;;;;4.04;91.04;97916.42;226073;1267;22536;-74
2023/12/14 07:06:05;;;;;;;56.50;25.40;;;;;;;4.09;90.88;97919.71;225820;1254;25396;-73
2023/12/14 07:11:10;;;;;;;55.30;25.90;;;;;;;4.13;90.91;97925.88;225936;1255;22630;-74
2023/12/14 07:16:12;;;;;;;45.00;23.40;;;;;;;4.17;90.80;97935.36;226000;1254;22503;-75
2023/12/14 07:21:30;;;;;;;49.60;24.20;;;;;;;4.19;90.68;97951.82;225586;1257;25287;-74
2023/12/14 07:26:32;;;;;;;44.40;22.10;;;;;;;4.23;90.81;97959.89;225786;1256;22582;-76
2023/12/14 07:31:34;;;;;;;39.00;20.20;;;;;;;4.28;90.82;97966.27;225980;1253;22919;-80
2023/12/14 07:36:37;;;;;;;34.70;19.40;;;;;;;4.30;90.79;97969.85;225818;1269;23027;-79
2023/12/14 07:41:39;;;;;;;44.40;23.00;;;;;;;4.33;90.77;97978.61;225678;1260;22571;-75
2023/12/14 07:46:43;;;;;;;50.90;25.40;;;;;;;4.35;90.63;97985.54;225842;1260;22595;-78
2023/12/14 07:51:46;;;;;;;53.70;24.80;;;;;;;4.37;90.40;97996.23;225739;1260;22571;-75
2023/12/14 07:56:48;;;;;;;49.60;24.30;;;;;;;4.38;90.17;98006.55;225945;1262;22544;-75
2023/12/14 08:01:50;;;;;;;43.60;22.10;;;;;;;4.38;90.30;98017.24;225980;1260;22546;-76
2023/12/14 08:06:52;;;;;;;43.20;22.20;;;;;;;4.35;90.10;98023.71;225955;1257;22572;-75
2023/12/14 08:11:55;;;;;;;40.90;20.60;;;;;;;4.32;89.99;98028.88;225830;1256;22551;-78
2023/12/14 08:16:57;;;;;;;37.60;20.70;;;;;;;4.30;90.08;98040.07;225767;1262;22570;-75
2023/12/14 08:21:59;;;;;;;37.70;19.70;;;;;;;4.29;90.37;98039.66;225844;1265;22547;-74
2023/12/14 08:27:02;;;;;;;36.20;19.50;;;;;;;4.31;90.15;98044.88;225935;1274;23103;-75
2023/12/14 08:32:04;;;;;;;34.30;18.80;;;;;;;4.36;90.53;98053.00;226010;1273;22583;-77
2023/12/14 08:37:08;;;;;;;37.00;19.70;;;;;;;4.39;90.37;98058.40;225975;1257;22701;-75
2023/12/14 08:42:11;;;;;;;36.90;21.10;;;;;;;4.42;90.24;98066.34;226241;1257;22563;-77
2023/12/14 08:47:13;;;;;;;40.80;21.60;;;;;;;4.43;90.24;98074.74;226302;1274;22574;-74
2023/12/14 08:52:15;;;;;;;39.90;21.40;;;;;;;4.43;90.33;98088.83;226232;1274;23039;-74
2023/12/14 08:57:17;;;;;;;41.20;21.70;;;;;;;4.43;89.85;98099.35;226260;1251;23120;-75
2023/12/14 09:02:19;;;;;;;38.50;21.20;;;;;;;4.41;90.27;98108.80;226165;1269;22535;-75
2023/12/14 09:07:22;;;;;;;40.40;21.60;;;;;;;4.41;90.02;98115.21;226233;1261;22550;-76
2023/12/14 09:12:24;;;;;;;41.60;22.10;;;;;;;4.44;90.07;98120.15;225933;1270;22546;-75
2023/12/14 09:17:32;;;;;;;40.50;22.00;;;;;;;4.48;90.12;98127.21;226252;1271;22848;-75
2023/12/14 09:22:38;;;;;;;41.60;21.90;;;;;;;4.50;90.21;98134.27;225942;1275;22565;-76
2023/12/14 09:27:40;;;;;;;45.30;21.10;;;;;;;4.52;90.20;98135.17;226009;1274;22526;-75
2023/12/14 09:32:42;;;;;;;43.20;21.60;;;;;;;4.51;89.87;98139.58;226095;1267;22547;-75
2023/12/14 09:37:45;;;;;;;47.30;22.10;;;;;;;4.53;89.77;98141.41;226167;1269;24376;-74
2023/12/14 09:42:47;;;;;;;45.60;22.90;;;;;;;4.59;90.29;98143.73;226196;1267;22965;-73
2023/12/14 09:47:49;;;;;;;48.10;22.90;;;;;;;4.65;90.14;98149.13;226054;1251;22608;-75
2023/12/14 09:52:51;;;;;;;51.40;24.40;;;;;;;4.65;89.97;98150.32;226099;1257;22536;-76
2023/12/14 09:57:53;;;;;;;55.30;24.10;;;;;;;4.67;89.92;98152.05;226044;1263;25321;-73
2023/12/14 10:02:55;;;;;;;52.10;24.80;;;;;;;4.67;90.01;98161.63;226099;1257;22560;-73
2023/12/14 10:07:57;;;;;;;52.20;24.50;;;;;;;4.66;89.98;98160.65;226066;1261;23012;-73
2023/12/14 10:12:59;;;;;;;53.00;25.40;;;;;;;4.67;89.89;98163.98;226049;1261;22559;-73
2023/12/14 10:18:01;;;;;;;52.00;23.70;;;;;;;4.68;89.87;98163.89;226092;1267;22533;-72
2023/12/14 10:23:07;;;;;;;48.30;23.30;;;;;;;4.71;89.84;98165.52;226087;1251;25382;-73
2023/12/14 10:28:13;;;;;;;55.10;23.40;;;;;;;4.71;90.09;98167.48;226155;1263;22930;-73
2023/12/14 10:33:16;;;;;;;44.20;20.80;;;;;;;4.71;89.99;98170.42;226132;1261;22553;-73
2023/12/14 10:38:20;;;;;;;45.60;21.80;;;;;;;4.70;89.79;98169.94;226112;1255;22583;-73
2023/12/14 10:43:22;;;;;;;44.60;22.10;;;;;;;4.71;89.71;98178.05;226122;1253;22563;-73
2023/12/14 10:48:47;;;;;;;47.50;21.80;;;;;;;4.70;89.41;98187.27;225995;1260;22551;-74
2023/12/14 10:53:51;;;;;;;49.70;23.60;;;;;;;4.71;89.64;98187.73;225615;1260;22554;-74
2023/12/14 10:58:58;;;;;;;45.50;21.80;;;;;;;4.71;89.87;98197.64;225741;1267;22543;-73
2023/12/14 11:04:00;;;;;;;45.10;22.00;;;;;;;4.72;90.04;98209.71;225899;1267;22553;-73
2023/12/14 11:09:08;;;;;;;45.20;21.60;;;;;;;4.74;89.84;98218.22;226076;1257;23031;-72
2023/12/14 11:14:12;;;;;;;45.10;22.10;;;;;;;4.73;89.77;98230.41;226879;1254;23070;-72
2023/12/14 11:19:20;;;;;;;45.90;23.30;;;;;;;4.72;89.67;98232.64;226139;1251;22568;-74
2023/12/14 11:24:23;;;;;;;47.60;23.90;;;;;;;4.71;89.47;98227.77;225913;1270;192538;-73
2023/12/14 11:29:26;;;;;;;41.50;21.10;;;;;;;4.79;89.69;98228.30;225861;1262;22545;-74
2023/12/14 11:34:28;;;;;;;42.00;21.20;;;;;;;4.83;89.55;98229.80;226084;1274;22615;-75
2023/12/14 11:39:31;;;;;;;39.80;21.10;;;;;;;4.86;89.63;98241.98;225920;1264;22576;-75
2023/12/14 11:44:33;;;;;;;41.90;22.20;;;;;;;4.86;89.25;98247.15;226941;1267;22599;-73
2023/12/14 11:49:36;;;;;;;43.60;21.50;;;;;;;4.87;89.53;98248.76;226224;1270;23492;-74
2023/12/14 11:54:39;;;;;;;46.50;23.80;;;;;;;4.89;89.57;98247.31;226192;1273;22695;-74
2023/12/14 11:59:41;;;;;;;45.60;23.60;;;;;;;4.90;89.42;98251.55;226329;1257;24250;-74
2023/12/14 12:04:52;;;;;;;41.20;21.70;;;;;;;4.88;89.45;98257.33;226259;1270;22550;-73
2023/12/14 12:09:54;;;;;;;39.00;21.00;;;;;;;4.85;89.80;98265.51;226478;1254;22544;-75
2023/12/14 12:14:56;;;;;;;30.20;16.20;;;;;;;4.83;89.42;98268.58;226425;1267;22540;-74
2023/12/14 12:19:58;;;;;;;25.60;15.10;;;;;;;4.80;89.51;98273.35;226230;1273;24392;-74
2023/12/14 12:25:01;;;;;;;30.60;17.90;;;;;;;4.79;89.40;98276.81;226225;1251;25013;-72
2023/12/14 12:30:16;;;;;;;32.60;17.70;;;;;;;4.80;89.38;98278.09;226256;1267;22544;-73
2023/12/14 12:35:22;;;;;;;33.80;18.80;;;;;;;4.79;89.27;98284.49;226051;1270;22572;-73
2023/12/14 12:40:29;;;;;;;32.70;17.60;;;;;;;4.76;89.38;98285.96;226121;1260;24706;-73
2023/12/14 12:45:32;;;;;;;33.20;18.10;;;;;;;4.75;89.47;98298.66;226001;1259;22601;-73
2023/12/14 12:50:35;;;;;;;31.10;17.20;;;;;;;4.75;89.19;98300.67;226080;1257;22570;-73
2023/12/14 12:55:37;;;;;;;29.00;16.80;;;;;;;4.76;89.54;98307.00;226087;1267;22547;-75
2023/12/14 13:00:39;;;;;;;26.70;15.90;;;;;;;4.75;89.03;98317.54;226107;1250;26158;-74
2023/12/14 13:05:43;;;;;;;29.40;16.90;;;;;;;4.75;89.21;98329.10;226220;1253;27239;-75
2023/12/14 13:10:46;;;;;;;30.90;17.50;;;;;;;4.77;89.67;98329.51;226089;1264;22569;-75
2023/12/14 13:15:48;;;;;;;32.50;17.90;;;;;;;4.78;89.35;98335.55;226082;1267;22576;-75
2023/12/14 13:20:50;;;;;;;31.10;17.90;;;;;;;4.76;89.61;98340.77;226050;1266;22565;-75
2023/12/14 13:25:53;;;;;;;30.80;18.40;;;;;;;4.74;89.30;98345.02;226085;1267;22573;-73
2023/12/14 13:30:55;;;;;;;33.10;19.30;;;;;;;4.70;89.36;98357.12;225937;1266;22544;-74
2023/12/14 13:35:57;;;;;;;39.10;20.70;;;;;;;4.68;89.18;98373.06;226051;1251;22543;-76
2023/12/14 13:41:00;;;;;;;36.90;21.10;;;;;;;4.66;89.37;98382.55;226102;1253;23082;-75
2023/12/14 13:46:03;;;;;;;34.60;19.80;;;;;;;4.65;89.54;98393.56;226017;1259;23025;-75
2023/12/14 13:51:21;;;;;;;33.30;19.80;;;;;;;4.70;89.75;98397.41;225991;1259;22537;-74
2023/12/14 13:56:23;;;;;;;27.20;18.60;;;;;;;4.73;89.77;98405.14;225998;1270;23070;-75
2023/12/14 14:01:26;;;;;;;30.50;18.60;;;;;;;4.74;89.65;98414.70;225995;1272;22572;-73
2023/12/14 14:06:28;;;;;;;32.70;20.20;;;;;;;4.74;89.62;98422.81;225795;1250;24275;-76
2023/12/14 14:11:30;;;;;;;34.80;20.80;;;;;;;4.75;89.36;98431.83;225853;1263;22675;-74
2023/12/14 14:16:32;;;;;;;32.40;20.00;;;;;;;4.75;89.55;98438.64;226112;1253;22577;-74
2023/12/14 14:21:34;;;;;;;38.90;21.70;;;;;;;4.73;89.50;98441.97;226031;1266;22570;-75
2023/12/14 14:26:36;;;;;;;38.00;21.60;;;;;;;4.72;89.29;98443.77;226117;1251;23089;-76
2023/12/14 14:31:38;;;;;;;42.30;23.10;;;;;;;4.73;89.35;98456.86;226180;1263;22679;-75
2023/12/14 14:36:41;;;;;;;37.40;21.60;;;;;;;4.71;89.44;98466.92;226137;1253;22546;-75
2023/12/14 14:41:42;;;;;;;45.80;24.20;;;;;;;4.72;89.84;98478.56;226242;1263;22547;-76
2023/12/14 14:46:45;;;;;;;48.40;23.20;;;;;;;4.71;89.73;98481.41;226276;1250;22540;-75
2023/12/14 14:51:47;;;;;;;49.10;23.30;;;;;;;4.68;90.09;98486.63;226161;1267;22615;-76
2023/12/14 14:56:53;;;;;;;50.80;24.00;;;;;;;4.66;90.15;98487.66;226301;1267;22559;-78
2023/12/14 15:01:55;;;;;;;49.90;23.70;;;;;;;4.65;89.86;98490.57;225993;1274;25115;-76
2023/12/14 15:06:57;;;;;;;46.40;21.50;;;;;;;4.64;89.96;98499.23;226067;1266;22557;-78
2023/12/14 15:12:00;;;;;;;53.90;23.90;;;;;;;4.64;89.96;98496.91;226124;1260;22544;-76
2023/12/14 15:17:04;;;;;;;51.80;23.70;;;;;;;4.64;90.11;98500.80;226095;1272;22554;-76
2023/12/14 15:22:06;;;;;;;51.90;24.60;;;;;;;4.62;90.05;98515.08;226075;1274;22893;-75
2023/12/14 15:27:08;;;;;;;52.20;24.30;;;;;;;4.58;90.11;98529.48;226271;1274;22593;-75
2023/12/14 15:32:11;;;;;;;51.40;24.30;;;;;;;4.55;90.11;98537.95;226229;1273;22774;-75
2023/12/14 15:37:13;;;;;;;52.40;24.30;;;;;;;4.55;90.45;98532.55;226590;1275;22559;-74
2023/12/14 15:42:16;;;;;;;45.50;23.10;;;;;;;4.57;90.43;98547.52;225995;1275;22600;-73
2023/12/14 15:47:18;;;;;;;43.10;22.50;;;;;;;4.57;90.48;98556.05;225985;1278;22586;-73
2023/12/14 15:52:20;;;;;;;46.30;22.70;;;;;;;4.55;89.99;98565.02;225955;1260;22581;-74
2023/12/14 15:57:22;;;;;;;43.70;22.60;;;;;;;4.53;90.21;98568.31;225801;1276;23088;-74
2023/12/14 16:02:24;;;;;;;42.30;21.80;;;;;;;4.53;89.98;98569.92;225872;1276;22726;-73
2023/12/14 16:07:26;;;;;;;44.80;23.40;;;;;;;4.53;89.83;98584.95;225744;1276;26418;-73
2023/12/14 16:12:28;;;;;;;43.90;23.00;;;;;;;4.50;89.90;98595.92;225960;1278;22562;-74
2023/12/14 16:17:30;;;;;;;48.40;23.80;;;;;;;4.46;89.92;98603.91;226117;1274;22530;-73
2023/12/14 16:22:34;;;;;;;44.20;23.00;;;;;;;4.43;90.11;98615.58;226400;1266;22532;-75
2023/12/14 16:27:37;;;;;;;53.70;26.50;;;;;;;4.43;89.85;98625.41;226637;1272;23017;-74
2023/12/14 16:32:39;;;;;;;58.90;25.90;;;;;;;4.41;90.12;98630.16;226386;1271;22565;-74
2023/12/14 16:37:42;;;;;;;60.10;27.10;;;;;;;4.37;89.93;98635.27;226357;1270;22579;-74
2023/12/14 16:42:44;;;;;;;59.10;27.10;;;;;;;4.34;90.30;98645.14;226606;1269;22568;-74
2023/12/14 16:47:46;;;;;;;54.70;24.80;;;;;;;4.33;90.21;98648.89;226409;1274;22561;-74
2023/12/14 16:52:48;;;;;;;48.90;23.90;;;;;;;4.33;90.44;98658.08;226602;1272;22537;-74
2023/12/14 16:57:50;;;;;;;51.30;24.90;;;;;;;4.33;90.35;98664.94;226645;1272;25396;-75
2023/12/14 17:02:52;;;;;;;61.20;26.50;;;;;;;4.31;90.39;98674.66;226478;1273;22551;-74
2023/12/14 17:07:54;;;;;;;49.50;23.00;;;;;;;4.30;90.41;98681.05;226621;1272;22537;-73
2023/12/14 17:12:57;;;;;;;60.90;26.70;;;;;;;4.27;90.32;98685.38;226620;1272;22563;-76
2023/12/14 17:17:59;;;;;;;53.20;25.20;;;;;;;4.24;90.38;98695.24;226601;1269;22562;-74
2023/12/14 17:23:05;;;;;;;51.70;24.10;;;;;;;4.20;90.40;98703.50;226615;1272;24263;-73
2023/12/14 17:28:08;;;;;;;49.10;24.10;;;;;;;4.17;90.48;98705.20;226356;1275;22540;-74
2023/12/14 17:33:11;;;;;;;45.30;23.30;;;;;;;4.15;90.61;98716.02;226413;1274;22571;-74
2023/12/14 17:38:14;;;;;;;44.60;22.10;;;;;;;4.12;90.55;98720.47;226510;1272;22551;-74
2023/12/14 17:43:16;;;;;;;41.00;22.10;;;;;;;4.08;90.77;98728.02;226312;1275;22562;-76
2023/12/14 17:48:18;;;;;;;33.60;18.70;;;;;;;4.04;90.77;98738.36;226454;1272;22544;-75
2023/12/14 17:53:22;;;;;;;38.30;20.30;;;;;;;3.98;90.83;98745.61;226355;1273;22542;-74
2023/12/14 17:58:24;;;;;;;39.80;21.50;;;;;;;3.91;91.37;98751.27;226610;1272;24664;-73
2023/12/14 18:03:29;;;;;;;30.30;16.70;;;;;;;3.88;91.17;98764.11;226433;1274;22543;-73
2023/12/14 18:08:31;;;;;;;29.90;18.00;;;;;;;3.82;90.93;98769.70;226568;1272;23014;-73
2023/12/14 18:13:35;;;;;;;35.40;18.70;;;;;;;3.78;91.17;98783.20;226409;1272;22550;-74
2023/12/14 18:18:38;;;;;;;29.30;18.20;;;;;;;3.76;91.26;98793.81;226479;1274;22560;-73
2023/12/14 18:23:41;;;;;;;30.90;17.50;;;;;;;3.74;91.34;98805.88;226419;1275;22544;-74
2023/12/14 18:28:44;;;;;;;26.90;16.70;;;;;;;3.72;91.31;98810.23;226357;1272;22543;-73
2023/12/14 18:33:51;;;;;;;26.50;15.70;;;;;;;3.69;91.31;98815.42;226489;1274;22536;-73
2023/12/14 18:38:55;;;;;;;25.90;15.70;;;;;;;3.65;91.36;98827.09;226665;1272;22561;-74
2023/12/14 18:43:57;;;;;;;23.30;14.20;;;;;;;3.62;91.17;98832.92;226504;1272;22547;-75
2023/12/14 18:49:00;;;;;;;24.60;14.50;;;;;;;3.58;91.20;98841.30;226567;1275;22568;-75
2023/12/14 18:54:03;;;;;;;22.80;15.30;;;;;;;3.56;91.38;98853.07;226564;1272;22581;-74
2023/12/14 18:59:09;;;;;;;25.90;15.40;;;;;;;3.55;91.31;98866.15;226506;1272;22575;-74
2023/12/14 19:04:18;;;;;;;24.80;13.80;;;;;;;3.52;91.21;98869.36;226545;1272;22565;-73
2023/12/14 19:09:22;;;;;;;21.70;13.90;;;;;;;3.48;91.13;98877.30;226888;1272;22648;-75
2023/12/14 19:14:24;;;;;;;22.70;13.70;;;;;;;3.43;91.38;98887.40;226493;1275;22626;-75
2023/12/14 19:19:26;;;;;;;28.30;15.80;;;;;;;3.42;91.21;98899.91;226256;1275;22563;-73
2023/12/14 19:24:29;;;;;;;25.00;14.70;;;;;;;3.41;91.34;98904.90;226323;1275;22543;-74
2023/12/14 19:29:31;;;;;;;24.30;14.30;;;;;;;3.39;91.27;98910.45;226539;1271;25256;-74
2023/12/14 19:34:38;;;;;;;23.90;14.60;;;;;;;3.37;91.28;98922.80;226598;1269;25429;-73
2023/12/14 19:39:40;;;;;;;23.00;13.90;;;;;;;3.35;91.30;98931.69;226357;1275;22657;-73
2023/12/14 19:44:43;;;;;;;24.10;13.80;;;;;;;3.32;91.28;98938.44;226566;1266;22546;-73
2023/12/14 19:49:46;;;;;;;19.40;12.40;;;;;;;3.27;91.08;98948.42;226333;1274;22646;-73
2023/12/14 19:54:49;;;;;;;20.50;11.90;;;;;;;3.21;91.12;98957.58;226554;1272;22550;-76
2023/12/14 19:59:52;;;;;;;17.20;10.80;;;;;;;3.14;91.19;98958.44;226489;1274;25288;-74
2023/12/14 20:04:54;;;;;;;17.00;10.50;;;;;;;3.06;91.04;98973.48;226418;1274;22554;-74
2023/12/14 20:09:56;;;;;;;11.70;8.00;;;;;;;2.97;90.87;98978.27;226410;1274;22536;-74
2023/12/14 20:15:05;;;;;;;14.40;8.90;;;;;;;2.89;90.99;98983.20;226412;1266;22547;-74
2023/12/14 20:20:09;;;;;;;14.40;10.00;;;;;;;2.83;90.99;98986.58;226560;1267;22540;-74
2023/12/14 20:25:14;;;;;;;17.70;10.70;;;;;;;2.79;91.10;98984.94;226930;1274;22536;-74
2023/12/14 20:30:15;;;;;;;16.60;11.40;;;;;;;2.77;91.20;98994.81;226603;1269;22544;-75
2023/12/14 20:35:18;;;;;;;19.10;12.40;;;;;;;2.77;91.17;98997.48;226402;1274;22540;-72
2023/12/14 20:40:20;;;;;;;21.90;13.50;;;;;;;2.75;91.23;99011.34;226376;1269;22537;-74
2023/12/14 20:45:24;;;;;;;21.90;13.60;;;;;;;2.74;91.29;99013.33;226346;1274;22539;-73
2023/12/14 20:50:31;;;;;;;22.70;14.00;;;;;;;2.74;91.26;99020.29;226328;1274;25929;-74
2023/12/14 20:55:34;;;;;;;21.20;13.10;;;;;;;2.73;91.19;99027.50;226819;1271;22625;-73
2023/12/14 21:00:36;;;;;;;24.10;15.10;;;;;;;2.73;91.32;99042.00;226442;1273;22587;-74
2023/12/14 21:05:38;;;;;;;24.50;15.10;;;;;;;2.72;91.29;99048.45;226307;1272;25955;-75
2023/12/14 21:10:49;;;;;;;26.80;16.40;;;;;;;2.73;91.32;99052.08;226501;1275;22526;-74
2023/12/14 21:15:52;;;;;;;28.10;17.30;;;;;;;2.74;91.40;99060.32;226302;1274;22906;-74
2023/12/14 21:20:54;;;;;;;26.90;16.20;;;;;;;2.76;91.46;99069.17;226493;1275;23275;-74
2023/12/14 21:26:11;;;;;;;28.20;16.10;;;;;;;2.76;91.47;99074.75;226420;1273;25345;-75
2023/12/14 21:31:15;;;;;;;21.00;13.80;;;;;;;2.76;91.46;99078.57;226518;1275;22559;-73
2023/12/14 21:36:18;;;;;;;26.30;15.30;;;;;;;2.76;91.50;99082.73;226899;1274;22554;-73
2023/12/14 21:41:20;;;;;;;24.80;15.50;;;;;;;2.78;91.18;99097.39;226596;1269;22531;-74
2023/12/14 21:46:22;;;;;;;26.50;15.50;;;;;;;2.77;91.28;99103.89;226627;1274;22542;-74
2023/12/14 21:51:27;;;;;;;26.10;16.30;;;;;;;2.77;91.33;99112.20;226582;1275;22656;-75
2023/12/14 21:56:28;;;;;;;25.40;16.10;;;;;;;2.79;91.43;99121.12;226500;1252;22574;-74
2023/12/14 22:01:31;;;;;;;23.80;15.50;;;;;;;2.80;91.41;99126.10;226489;1273;22558;-74
2023/12/14 22:06:36;;;;;;;29.50;16.90;;;;;;;2.79;91.23;99132.22;226555;1275;22537;-74
2023/12/14 22:11:40;;;;;;;28.10;15.60;;;;;;;2.77;91.15;99137.61;226455;1272;25278;-74
2023/12/14 22:16:42;;;;;;;31.80;16.70;;;;;;;2.75;91.18;99150.64;226458;1275;22548;-75
2023/12/14 22:21:44;;;;;;;31.40;17.70;;;;;;;2.71;91.10;99161.02;226571;1272;22561;-74
2023/12/14 22:26:46;;;;;;;31.20;16.80;;;;;;;2.67;91.16;99174.30;226484;1272;22527;-74
2023/12/14 22:31:48;;;;;;;42.30;21.20;;;;;;;2.60;91.04;99173.86;226464;1275;22547;-74
2023/12/14 22:36:51;;;;;;;37.50;19.00;;;;;;;2.49;91.07;99187.94;226499;1273;22579;-74
2023/12/14 22:41:53;;;;;;;35.00;18.50;;;;;;;2.42;91.15;99201.39;226549;1272;22589;-73
2023/12/14 22:46:55;;;;;;;29.10;16.10;;;;;;;2.35;90.87;99208.42;226633;1271;23005;-73
2023/12/14 22:51:57;;;;;;;31.30;18.00;;;;;;;2.29;90.76;99217.45;226570;1275;22557;-73
2023/12/14 22:56:59;;;;;;;32.80;17.00;;;;;;;2.24;90.84;99224.10;226546;1275;26012;-74
2023/12/14 23:02:01;;;;;;;33.40;18.80;;;;;;;2.19;90.66;99227.66;226500;1274;22552;-73
2023/12/14 23:07:04;;;;;;;36.80;19.70;;;;;;;2.14;90.82;99234.45;226578;1272;22599;-73
2023/12/14 23:12:06;;;;;;;37.60;20.40;;;;;;;2.07;90.80;99235.39;226224;1275;22572;-73